createdAt,value
2023-04-27T00:01:59.199Z,8.90
2023-04-27T00:04:27.050Z,8.60
2023-04-27T00:06:55.014Z,9.10
2023-04-27T00:09:22.835Z,8.70
2023-04-27T00:11:51.997Z,8.60
2023-04-27T00:14:20.888Z,8.30
2023-04-27T00:16:48.787Z,8.50
2023-04-27T00:19:16.606Z,9.00
2023-04-27T00:21:44.286Z,8.90
2023-04-27T00:24:12.066Z,8.80
2023-04-27T00:26:39.810Z,9.00
2023-04-27T00:29:08.882Z,9.00
2023-04-27T00:31:36.719Z,8.90
2023-04-27T00:34:04.499Z,9.10
2023-04-27T00:36:34.577Z,8.80
2023-04-27T00:39:03.734Z,8.80
2023-04-27T00:41:31.520Z,8.20
2023-04-27T00:43:59.425Z,8.80
2023-04-27T00:46:30.483Z,9.00
2023-04-27T00:48:58.354Z,8.70
2023-04-27T00:51:27.991Z,8.90
2023-04-27T00:53:55.801Z,8.80
2023-04-27T00:56:23.633Z,8.70
2023-04-27T00:58:51.364Z,8.80
2023-04-27T01:01:20.530Z,9.00
2023-04-27T01:03:50.445Z,8.80
2023-04-27T01:06:18.314Z,8.50
2023-04-27T01:08:46.801Z,8.60
2023-04-27T01:11:14.562Z,8.80
2023-04-27T01:13:42.318Z,8.80
2023-04-27T01:16:10.193Z,8.60
2023-04-27T01:18:37.929Z,8.50
2023-04-27T01:21:07.230Z,8.60
2023-04-27T01:23:36.518Z,8.70
2023-04-27T01:26:04.249Z,8.70
2023-04-27T01:28:32.323Z,8.80
2023-04-27T01:31:00.117Z,8.50
2023-04-27T01:33:27.917Z,8.50
2023-04-27T01:35:55.641Z,8.50
2023-04-27T01:38:24.079Z,8.80
2023-04-27T01:40:55.113Z,8.60
2023-04-27T01:43:22.927Z,8.60
2023-04-27T01:45:50.840Z,8.40
2023-04-27T01:48:18.650Z,8.40
2023-04-27T01:50:46.543Z,8.70
2023-04-27T01:53:14.308Z,8.40
2023-04-27T01:55:42.045Z,8.20
2023-04-27T01:58:11.082Z,8.50
2023-04-27T02:00:38.779Z,8.30
2023-04-27T02:03:06.737Z,8.20
2023-04-27T02:05:34.591Z,8.40
2023-04-27T02:08:02.340Z,8.20
2023-04-27T02:10:30.035Z,8.10
2023-04-27T02:12:57.934Z,8.40
2023-04-27T02:15:27.103Z,8.40
2023-04-27T02:17:54.963Z,8.20
2023-04-27T02:20:22.886Z,8.10
2023-04-27T02:22:50.626Z,8.30
2023-04-27T02:25:18.556Z,7.80
2023-04-27T02:27:46.590Z,8.40
2023-04-27T02:30:15.589Z,8.30
2023-04-27T02:32:46.365Z,8.40
2023-04-27T02:35:14.537Z,8.40
2023-04-27T02:37:42.403Z,8.50
2023-04-27T02:40:11.225Z,8.40
2023-04-27T02:42:39.218Z,7.90
2023-04-27T02:45:08.609Z,8.90
2023-04-27T02:47:36.399Z,8.80
2023-04-27T02:50:06.175Z,8.90
2023-04-27T02:52:34.600Z,8.80
2023-04-27T02:55:02.421Z,9.10
2023-04-27T02:57:30.232Z,8.90
2023-04-27T02:59:58.014Z,8.90
2023-04-27T03:02:25.870Z,8.70
2023-04-27T03:04:54.842Z,8.80
2023-04-27T03:07:24.149Z,8.90
2023-04-27T03:09:51.954Z,8.60
2023-04-27T03:12:19.660Z,8.80
2023-04-27T03:14:47.355Z,9.00
2023-04-27T03:17:15.054Z,8.80
2023-04-27T03:19:42.848Z,9.10
2023-04-27T03:22:10.574Z,8.90
2023-04-27T03:24:39.633Z,8.80
2023-04-27T03:27:07.441Z,8.60
2023-04-27T03:29:35.373Z,8.90
2023-04-27T03:32:04.286Z,9.10
2023-04-27T03:34:32.497Z,8.90
2023-04-27T03:37:00.247Z,8.90
2023-04-27T03:39:30.205Z,8.80
2023-04-27T03:41:59.276Z,8.90
2023-04-27T03:44:27.003Z,9.10
2023-04-27T03:46:54.818Z,8.90
2023-04-27T03:49:22.912Z,8.70
2023-04-27T03:51:50.849Z,9.00
2023-04-27T03:54:21.037Z,8.90
2023-04-27T03:56:48.897Z,8.80
2023-04-27T03:59:18.225Z,8.70
2023-04-27T04:01:46.043Z,9.00
2023-04-27T04:04:14.109Z,8.60
2023-04-27T04:06:41.882Z,8.60
2023-04-27T04:09:09.907Z,8.90
2023-04-27T04:11:37.698Z,8.40
2023-04-27T04:14:06.802Z,8.90
2023-04-27T04:16:35.930Z,8.80
2023-04-27T04:19:03.800Z,8.90
2023-04-27T04:21:31.791Z,8.80
2023-04-27T04:23:59.510Z,8.60
2023-04-27T04:26:27.254Z,8.50
2023-04-27T04:28:55.022Z,8.50
2023-04-27T04:31:23.004Z,8.60
2023-04-27T04:33:52.196Z,8.60
2023-04-27T04:36:19.917Z,8.60
2023-04-27T04:38:47.636Z,8.90
2023-04-27T04:41:15.714Z,8.80
2023-04-27T04:43:43.499Z,8.60
2023-04-27T04:46:11.334Z,8.60
2023-04-27T04:48:39.114Z,8.80
2023-04-27T04:51:08.442Z,8.60
2023-04-27T04:53:36.348Z,8.70
2023-04-27T04:56:10.072Z,8.90
2023-04-27T04:58:37.788Z,8.90
2023-04-27T05:01:05.750Z,8.70
2023-04-27T05:03:33.853Z,8.70
2023-04-27T05:06:01.850Z,9.10
2023-04-27T05:08:30.987Z,9.10
2023-04-27T05:10:58.751Z,8.40
2023-04-27T05:13:26.876Z,9.00
2023-04-27T05:15:54.861Z,8.60
2023-04-27T05:18:22.646Z,9.00
2023-04-27T05:20:50.460Z,9.20
2023-04-27T05:23:18.176Z,9.00
2023-04-27T05:25:47.236Z,9.30
2023-04-27T05:28:15.638Z,9.30
2023-04-27T05:30:43.387Z,9.20
2023-04-27T05:33:11.270Z,9.00
2023-04-27T05:35:39.188Z,9.20
2023-04-27T05:38:07.001Z,9.50
2023-04-27T05:40:36.277Z,9.20
2023-04-27T05:43:05.803Z,9.80
2023-04-27T05:45:33.869Z,9.70
2023-04-27T05:48:01.850Z,10.10
2023-04-27T05:50:29.785Z,10.00
2023-04-27T05:52:57.987Z,10.20
2023-04-27T05:55:26.103Z,9.60
2023-04-27T05:58:06.672Z,9.90
2023-04-27T06:00:38.242Z,9.90
2023-04-27T06:03:06.182Z,10.20
2023-04-27T06:05:34.789Z,10.10
2023-04-27T06:08:02.907Z,10.40
2023-04-27T06:10:30.725Z,10.80
2023-04-27T06:12:58.563Z,10.80
2023-04-27T06:15:26.354Z,10.80
2023-04-27T06:17:55.538Z,10.90
2023-04-27T06:20:23.697Z,11.10
2023-04-27T06:22:51.677Z,11.30
2023-04-27T06:25:19.463Z,11.30
2023-04-27T06:27:47.472Z,11.60
2023-04-27T06:30:15.537Z,11.70
2023-04-27T06:32:43.505Z,12.10
2023-04-27T06:35:12.981Z,12.00
2023-04-27T06:37:41.204Z,11.90
2023-04-27T06:40:09.635Z,12.30
2023-04-27T06:42:37.381Z,12.40
2023-04-27T06:45:05.819Z,12.80
2023-04-27T06:47:34.786Z,12.60
2023-04-27T06:50:02.691Z,12.60
2023-04-27T06:52:33.163Z,12.90
2023-04-27T06:55:00.914Z,13.10
2023-04-27T06:57:28.835Z,13.20
2023-04-27T06:59:56.636Z,13.50
2023-04-27T07:02:25.608Z,13.40
2023-04-27T07:04:53.539Z,13.90
2023-04-27T07:07:21.597Z,13.70
2023-04-27T07:09:51.050Z,14.00
2023-04-27T07:12:18.932Z,13.80
2023-04-27T07:14:46.744Z,13.80
2023-04-27T07:17:14.488Z,14.30
2023-04-27T07:19:42.243Z,14.50
2023-04-27T07:22:11.674Z,14.70
2023-04-27T07:24:39.565Z,15.10
2023-04-27T07:27:09.004Z,15.40
2023-04-27T07:29:37.873Z,16.00
2023-04-27T07:32:07.489Z,16.00
2023-04-27T07:34:49.152Z,16.90
2023-04-27T07:37:20.986Z,17.50
2023-04-27T07:39:50.669Z,17.30
2023-04-27T07:42:19.908Z,18.30
2023-04-27T07:44:47.749Z,18.30
2023-04-27T07:47:15.741Z,18.00
2023-04-27T07:49:45.441Z,18.20
2023-04-27T07:52:13.372Z,18.60
2023-04-27T07:54:41.246Z,19.20
2023-04-27T07:57:10.172Z,19.60
2023-04-27T07:59:39.758Z,19.20
2023-04-27T08:02:18.957Z,19.30
2023-04-27T08:04:49.978Z,20.40
2023-04-27T08:07:20.169Z,21.80
2023-04-27T08:09:52.856Z,22.50
2023-04-27T08:12:22.691Z,22.60
2023-04-27T08:14:54.030Z,23.50
2023-04-27T08:17:23.803Z,24.40
2023-04-27T08:19:53.578Z,25.40
2023-04-27T08:22:23.663Z,25.10
2023-04-27T08:24:53.403Z,25.50
2023-04-27T08:27:23.152Z,25.70
2023-04-27T08:29:54.689Z,25.30
2023-04-27T08:32:24.587Z,24.70
2023-04-27T08:34:54.481Z,24.70
2023-04-27T08:37:24.384Z,24.80
2023-04-27T08:39:53.786Z,25.10
2023-04-27T08:42:23.721Z,25.90
2023-04-27T08:44:55.150Z,25.80
2023-04-27T08:47:35.104Z,26.10
2023-04-27T08:50:13.173Z,25.50
2023-04-27T08:52:42.877Z,26.20
2023-04-27T08:55:15.679Z,25.90
2023-04-27T08:57:55.327Z,26.40
2023-04-27T09:00:25.459Z,26.20
2023-04-27T09:02:53.606Z,26.30
2023-04-27T09:05:23.594Z,26.20
2023-04-27T09:08:02.593Z,25.80
2023-04-27T09:10:30.815Z,25.80
2023-04-27T09:12:59.982Z,26.40
2023-04-27T09:15:29.819Z,25.90
2023-04-27T09:17:58.880Z,25.40
2023-04-27T09:20:28.466Z,25.80
2023-04-27T09:22:57.966Z,26.10
2023-04-27T09:25:27.605Z,25.50
2023-04-27T09:27:55.779Z,25.60
2023-04-27T09:30:23.715Z,25.20
2023-04-27T09:32:57.165Z,25.30
2023-04-27T09:35:26.720Z,25.40
2023-04-27T09:37:55.481Z,25.30
2023-04-27T09:40:26.541Z,25.70
2023-04-27T09:42:55.089Z,25.90
2023-04-27T09:45:24.150Z,25.90
2023-04-27T09:47:52.093Z,24.90
2023-04-27T09:50:21.887Z,25.40
2023-04-27T09:52:49.703Z,25.50
2023-04-27T09:55:20.799Z,26.00
2023-04-27T09:57:56.165Z,26.20
2023-04-27T10:00:40.181Z,25.80
2023-04-27T10:03:18.898Z,25.50
2023-04-27T10:06:17.584Z,25.10
2023-04-27T10:08:45.771Z,25.40
2023-04-27T10:11:18.981Z,25.30
2023-04-27T10:13:54.844Z,24.90
2023-04-27T10:16:23.495Z,25.00
2023-04-27T10:18:56.708Z,26.00
2023-04-27T10:21:27.072Z,26.20
2023-04-27T10:23:55.015Z,25.80
2023-04-27T10:26:26.529Z,25.50
2023-04-27T10:29:05.463Z,25.30
2023-04-27T10:31:33.685Z,25.20
2023-04-27T10:34:09.005Z,24.80
2023-04-27T10:36:38.182Z,24.20
2023-04-27T10:39:16.998Z,24.00
2023-04-27T10:41:53.651Z,24.40
2023-04-27T10:44:29.039Z,23.80
2023-04-27T10:46:59.820Z,23.70
2023-04-27T10:49:29.838Z,23.90
2023-04-27T10:52:00.778Z,23.80
2023-04-27T10:54:29.932Z,24.00
2023-04-27T10:57:05.279Z,24.30
2023-04-27T10:59:34.500Z,23.90
2023-04-27T11:02:02.930Z,23.60
2023-04-27T11:04:39.937Z,23.50
2023-04-27T11:07:10.507Z,23.90
2023-04-27T11:09:39.518Z,23.70
2023-04-27T11:12:09.309Z,23.50
2023-04-27T11:14:38.608Z,23.90
2023-04-27T11:17:08.171Z,24.40
2023-04-27T11:19:46.043Z,24.50
2023-04-27T11:22:25.044Z,24.20
2023-04-27T11:24:54.651Z,24.30
2023-04-27T11:27:24.112Z,24.20
2023-04-27T11:29:53.274Z,23.90
2023-04-27T11:32:21.547Z,23.30
2023-04-27T11:34:53.562Z,22.90
2023-04-27T11:37:28.610Z,23.00
2023-04-27T11:39:58.183Z,22.90
2023-04-27T11:42:28.425Z,23.20
2023-04-27T11:44:58.379Z,23.60
2023-04-27T11:47:27.907Z,23.80
2023-04-27T11:49:57.710Z,23.90
2023-04-27T11:52:31.952Z,23.80
2023-04-27T11:55:01.895Z,24.00
2023-04-27T11:57:32.417Z,23.50
2023-04-27T12:00:02.220Z,23.10
2023-04-27T12:02:31.600Z,23.40
2023-04-27T12:05:01.016Z,23.40
2023-04-27T12:07:31.685Z,23.80
2023-04-27T12:10:01.048Z,23.70
2023-04-27T12:12:30.280Z,23.80
2023-04-27T12:14:59.551Z,23.90
2023-04-27T12:17:27.636Z,24.00
2023-04-27T12:19:55.654Z,23.60
2023-04-27T12:22:25.068Z,23.10
2023-04-27T12:24:54.894Z,23.10
2023-04-27T12:27:22.848Z,22.80
2023-04-27T12:29:55.087Z,22.60
2023-04-27T12:32:23.619Z,22.50
2023-04-27T12:34:51.496Z,22.60
2023-04-27T12:37:19.355Z,22.00
2023-04-27T12:39:47.232Z,21.90
2023-04-27T12:42:23.891Z,22.00
2023-04-27T12:44:52.214Z,21.50
2023-04-27T12:47:45.948Z,21.50
2023-04-27T12:50:10.934Z,21.50
2023-04-27T12:52:38.907Z,21.60
2023-04-27T12:55:15.265Z,21.90
2023-04-27T12:57:50.781Z,21.50
2023-04-27T13:00:19.255Z,21.50
2023-04-27T13:02:47.740Z,21.60
2023-04-27T13:05:16.492Z,21.70
2023-04-27T13:07:44.407Z,21.60
2023-04-27T13:10:12.625Z,21.90
2023-04-27T13:12:40.742Z,21.90
2023-04-27T13:15:11.850Z,21.80
2023-04-27T13:17:42.255Z,21.40
2023-04-27T13:20:12.361Z,21.60
2023-04-27T13:22:41.721Z,21.80
2023-04-27T13:25:10.576Z,22.10
2023-04-27T13:27:41.456Z,22.20
2023-04-27T13:30:11.780Z,21.50
2023-04-27T13:32:39.719Z,21.90
2023-04-27T13:35:08.711Z,21.70
2023-04-27T13:37:37.030Z,21.60
2023-04-27T13:40:06.490Z,21.90
2023-04-27T13:42:35.526Z,22.10
2023-04-27T13:45:04.209Z,22.10
2023-04-27T13:47:36.879Z,22.10
2023-04-27T13:50:07.430Z,21.90
2023-04-27T13:52:36.277Z,21.80
2023-04-27T13:58:16.989Z,21.70
2023-04-27T14:00:50.103Z,21.60
2023-04-27T14:03:20.660Z,21.70
2023-04-27T14:05:51.356Z,21.80
2023-04-27T14:08:29.172Z,21.80
2023-04-27T14:10:59.837Z,21.40
2023-04-27T14:16:21.572Z,21.80
2023-04-27T14:19:29.704Z,21.80
2023-04-27T14:22:04.907Z,22.10
2023-04-27T14:24:33.179Z,22.00
2023-04-27T14:27:01.515Z,22.00
2023-04-27T14:29:34.253Z,21.80
2023-04-27T14:32:03.892Z,21.60
2023-04-27T14:34:32.114Z,21.70
2023-04-27T14:37:05.323Z,21.90
2023-04-27T14:39:33.134Z,21.80
2023-04-27T14:42:01.080Z,21.40
2023-04-27T14:44:28.993Z,21.70
2023-04-27T14:46:58.190Z,21.60
2023-04-27T14:49:26.181Z,21.50
2023-04-27T14:51:53.984Z,21.60
2023-04-27T14:54:23.193Z,21.80
2023-04-27T14:56:50.985Z,21.50
2023-04-27T14:59:18.706Z,20.80
2023-04-27T15:01:46.509Z,20.70
2023-04-27T15:04:14.504Z,21.20
2023-04-27T15:06:42.449Z,20.50
2023-04-27T15:09:11.633Z,21.00
2023-04-27T15:11:42.142Z,20.90
2023-04-27T15:14:09.984Z,21.00
2023-04-27T15:16:37.969Z,20.80
2023-04-27T15:19:06.477Z,20.40
2023-04-27T15:21:35.297Z,20.90
2023-04-27T15:24:03.133Z,20.90
2023-04-27T15:26:30.914Z,20.90
2023-04-27T15:29:00.808Z,20.90
2023-04-27T15:31:28.600Z,20.50
2023-04-27T15:33:56.424Z,20.60
2023-04-27T15:36:26.586Z,20.70
2023-04-27T15:38:54.429Z,20.80
2023-04-27T15:41:22.529Z,20.60
2023-04-27T15:43:51.869Z,20.50
2023-04-27T15:46:21.052Z,20.50
2023-04-27T15:48:49.041Z,20.20
2023-04-27T15:51:16.853Z,20.00
2023-04-27T15:53:44.640Z,20.30
2023-04-27T15:56:12.451Z,20.40
2023-04-27T15:58:40.247Z,20.10
2023-04-27T16:01:08.180Z,20.00
2023-04-27T16:03:38.214Z,20.30
2023-04-27T16:06:09.001Z,20.30
2023-04-27T16:08:36.777Z,20.10
2023-04-27T16:11:04.590Z,19.80
2023-04-27T16:13:32.562Z,20.00
2023-04-27T16:16:00.613Z,19.80
2023-04-27T16:18:28.512Z,19.80
2023-04-27T16:20:58.707Z,20.00
2023-04-27T16:23:26.634Z,19.70
2023-04-27T16:25:54.504Z,20.30
2023-04-27T16:28:22.329Z,19.60
2023-04-27T16:30:50.454Z,19.90
2023-04-27T16:33:21.050Z,19.20
2023-04-27T16:35:48.900Z,19.80
2023-04-27T16:38:18.251Z,19.50
2023-04-27T16:40:47.713Z,19.50
2023-04-27T16:43:15.715Z,19.30
2023-04-27T16:45:43.488Z,19.30
2023-04-27T16:48:12.323Z,19.40
2023-04-27T16:50:40.894Z,19.30
2023-04-27T16:53:09.813Z,19.30
2023-04-27T16:55:38.899Z,19.30
2023-04-27T16:58:07.308Z,18.90
2023-04-27T17:00:35.276Z,19.10
2023-04-27T17:03:03.283Z,18.90
2023-04-27T17:05:32.657Z,18.60
2023-04-27T17:08:01.806Z,18.80
2023-04-27T17:10:31.211Z,18.40
2023-04-27T17:13:00.430Z,18.40
2023-04-27T17:15:28.689Z,18.40
2023-04-27T17:17:56.661Z,18.30
2023-04-27T17:20:24.573Z,18.20
2023-04-27T17:22:52.845Z,18.20
2023-04-27T17:25:20.769Z,18.10
2023-04-27T17:27:49.340Z,17.90
2023-04-27T17:30:18.614Z,18.20
2023-04-27T17:32:47.348Z,18.00
2023-04-27T17:35:15.377Z,18.00
2023-04-27T17:37:43.188Z,18.00
2023-04-27T17:40:12.650Z,17.80
2023-04-27T17:42:40.584Z,18.00
2023-04-27T17:45:09.945Z,17.90
2023-04-27T17:47:39.182Z,17.60
2023-04-27T17:50:08.271Z,17.80
2023-04-27T17:52:36.093Z,17.70
2023-04-27T17:55:04.372Z,17.20
2023-04-27T17:57:32.230Z,17.60
2023-04-27T17:59:59.985Z,17.80
2023-04-27T18:02:27.963Z,17.50
2023-04-27T18:04:57.227Z,17.20
2023-04-27T18:07:25.157Z,17.50
2023-04-27T18:09:53.031Z,17.40
2023-04-27T18:12:21.412Z,17.20
2023-04-27T18:14:50.674Z,17.20
2023-04-27T18:17:18.521Z,17.10
2023-04-27T18:19:46.412Z,17.10
2023-04-27T18:22:16.240Z,17.00
2023-04-27T18:24:47.263Z,16.90
2023-04-27T18:27:16.516Z,16.20
2023-04-27T18:29:44.254Z,16.70
2023-04-27T18:32:12.666Z,16.60
2023-04-27T18:34:40.557Z,16.60
2023-04-27T18:37:08.296Z,16.70
2023-04-27T18:39:37.482Z,16.10
2023-04-27T18:42:05.501Z,16.10
2023-04-27T18:44:33.450Z,15.50
2023-04-27T18:47:01.850Z,15.70
2023-04-27T18:49:29.625Z,15.90
2023-04-27T18:51:57.427Z,15.80
2023-04-27T18:54:25.142Z,15.80
2023-04-27T18:56:54.317Z,15.70
2023-04-27T18:59:22.124Z,15.80
2023-04-27T19:01:49.996Z,16.00
2023-04-27T19:04:18.005Z,15.80
2023-04-27T19:06:47.160Z,15.70
2023-04-27T19:09:15.038Z,15.60
2023-04-27T19:11:52.568Z,15.70
2023-04-27T19:14:31.533Z,15.60
2023-04-27T19:16:59.574Z,15.50
2023-04-27T19:19:27.794Z,15.40
2023-04-27T19:21:58.192Z,15.20
2023-04-27T19:24:26.063Z,15.40
2023-04-27T19:26:55.772Z,15.40
2023-04-27T19:29:26.989Z,15.40
2023-04-27T19:31:56.419Z,15.20
2023-04-27T19:34:24.152Z,15.60
2023-04-27T19:36:51.869Z,15.60
2023-04-27T19:39:21.094Z,15.60
2023-04-27T19:41:48.865Z,15.40
2023-04-27T19:44:16.641Z,15.20
2023-04-27T19:46:44.493Z,15.50
2023-04-27T19:49:13.619Z,15.20
2023-04-27T19:51:42.659Z,15.30
2023-04-27T19:54:10.445Z,15.30
2023-04-27T19:56:38.148Z,15.50
2023-04-27T19:59:05.866Z,15.70
2023-04-27T20:01:33.654Z,15.50
2023-04-27T20:04:02.208Z,15.50
2023-04-27T20:06:32.248Z,15.30
2023-04-27T20:08:59.958Z,15.60
2023-04-27T20:11:27.756Z,15.50
2023-04-27T20:13:55.542Z,15.60
2023-04-27T20:16:25.397Z,15.50
2023-04-27T20:18:53.256Z,15.50
2023-04-27T20:21:21.409Z,15.40
2023-04-27T20:23:51.103Z,15.50
2023-04-27T20:26:18.937Z,15.40
2023-04-27T20:28:46.979Z,15.20
2023-04-27T20:31:15.333Z,15.40
2023-04-27T20:33:43.073Z,15.40
2023-04-27T20:36:17.318Z,15.50
2023-04-27T20:38:45.898Z,15.40
2023-04-27T20:41:15.208Z,15.10
2023-04-27T20:43:45.319Z,15.20
2023-04-27T20:46:13.373Z,15.20
2023-04-27T20:48:41.273Z,15.40
2023-04-27T20:51:09.206Z,15.10
2023-04-27T20:53:36.966Z,15.40
2023-04-27T20:56:04.921Z,15.10
2023-04-27T20:58:33.962Z,15.20
2023-04-27T21:01:01.715Z,14.80
2023-04-27T21:03:29.711Z,14.80
2023-04-27T21:05:57.477Z,14.80
2023-04-27T21:08:25.301Z,14.90
2023-04-27T21:10:53.109Z,14.90
2023-04-27T21:13:21.217Z,14.80
2023-04-27T21:15:50.651Z,14.70
2023-04-27T21:18:28.959Z,14.80
2023-04-27T21:20:58.013Z,15.00
2023-04-27T21:23:26.601Z,14.90
2023-04-27T21:25:55.248Z,14.80
2023-04-27T21:28:23.056Z,15.10
2023-04-27T21:30:52.238Z,15.30
2023-04-27T21:33:21.243Z,15.00
2023-04-27T21:35:49.015Z,14.80
2023-04-27T21:38:16.737Z,15.20
2023-04-27T21:40:44.518Z,15.00
2023-04-27T21:43:12.233Z,14.90
2023-04-27T21:45:39.910Z,14.90
2023-04-27T21:48:09.026Z,15.20
2023-04-27T21:50:36.779Z,14.80
2023-04-27T21:53:04.553Z,15.20
2023-04-27T21:55:32.279Z,14.90
2023-04-27T21:58:00.173Z,15.10
2023-04-27T22:00:27.882Z,14.70
2023-04-27T22:02:56.646Z,14.80
2023-04-27T22:05:29.106Z,14.50
2023-04-27T22:07:58.103Z,14.30
2023-04-27T22:10:25.932Z,14.80
2023-04-27T22:12:53.723Z,15.00
2023-04-27T22:15:21.572Z,14.90
2023-04-27T22:17:49.680Z,15.10
2023-04-27T22:20:18.908Z,15.00
2023-04-27T22:22:48.120Z,15.00
2023-04-27T22:25:16.005Z,15.00
2023-04-27T22:27:45.269Z,15.00
2023-04-27T22:30:15.008Z,15.30
2023-04-27T22:32:42.963Z,15.10
2023-04-27T22:35:24.782Z,14.80
2023-04-27T22:37:55.563Z,15.00
2023-04-27T22:40:23.480Z,14.60
2023-04-27T22:42:51.368Z,14.90
2023-04-27T22:45:19.210Z,14.90
2023-04-27T22:47:47.098Z,15.00
2023-04-27T22:50:14.948Z,15.00
2023-04-27T22:52:43.041Z,14.90
2023-04-27T22:55:13.496Z,15.00
2023-04-27T22:57:41.922Z,15.10
2023-04-27T23:00:11.928Z,15.00
2023-04-27T23:02:40.307Z,15.10
2023-04-27T23:05:08.794Z,15.50
2023-04-27T23:07:37.076Z,15.10
2023-04-27T23:10:05.807Z,15.40
2023-04-27T23:12:35.004Z,15.30
2023-04-27T23:15:02.821Z,15.70
2023-04-27T23:17:31.624Z,15.20
2023-04-27T23:19:59.872Z,15.60
2023-04-27T23:22:28.142Z,15.10
2023-04-27T23:24:56.376Z,15.10
2023-04-27T23:27:24.936Z,14.90
2023-04-27T23:29:54.204Z,15.10
2023-04-27T23:32:22.264Z,15.10
2023-04-27T23:34:53.617Z,15.30
2023-04-27T23:37:21.398Z,15.20
2023-04-27T23:39:49.269Z,15.30
2023-04-27T23:42:17.103Z,15.30
2023-04-27T23:44:44.818Z,15.30
2023-04-27T23:47:14.031Z,15.30
2023-04-27T23:49:44.282Z,15.30
2023-04-27T23:52:12.555Z,15.10
2023-04-27T23:54:40.299Z,15.30
2023-04-27T23:57:08.076Z,15.40
2023-04-27T23:59:36.184Z,15.50
